Serranopolis, Brazil
Current Conditions -  °F | °C
As of 4:00 AM on Thursday 29 Jan 2015 (Local Time) from SBGO Reporting Station
Scattered Clouds Scattered Clouds  
Wind Chill: 72°   Ceiling: Unl
Heat Index: 72°   Visibility: 6mi
Dew Point: 66°   Wind: 7mph
Humidity: 83%   Direction: 130°SE
Pressure: 30.03"   Gusts: NA
Location:  18.31°S, 51.96°W
Report Text: SBGO 290600Z 13006KT 9999 FEW045 SCT100 22/19 Q1017
Loading
Personal Weather Stations






























Interactive Weather Map New forecast layout! Learn more

10-Day Weather Forecast

Advertisements
Track Severe Weather on mobile